createdAt,value
2023-04-02T00:02:21.383Z,2.80
2023-04-02T00:05:30.690Z,2.80
2023-04-02T00:08:10.536Z,2.90
2023-04-02T00:10:48.648Z,3.00
2023-04-02T00:13:15.643Z,2.70
2023-04-02T00:15:44.905Z,2.80
2023-04-02T00:18:25.318Z,2.70
2023-04-02T00:21:12.132Z,2.80
2023-04-02T00:23:44.006Z,2.93
2023-04-02T00:26:31.461Z,2.70
2023-04-02T00:29:00.511Z,2.70
2023-04-02T00:31:27.532Z,2.43
2023-04-02T00:33:54.495Z,2.70
2023-04-02T00:36:22.497Z,2.93
2023-04-02T00:38:49.370Z,3.17
2023-04-02T00:41:25.192Z,3.13
2023-04-02T00:43:52.249Z,3.30
2023-04-02T00:46:24.429Z,3.30
2023-04-02T00:48:56.667Z,3.10
2023-04-02T00:51:31.261Z,2.97
2023-04-02T00:54:02.096Z,2.90
2023-04-02T00:56:32.752Z,3.10
2023-04-02T00:58:59.615Z,3.03
2023-04-02T01:01:29.627Z,3.30
2023-04-02T01:04:01.419Z,3.13
2023-04-02T01:06:34.482Z,2.43
2023-04-02T01:09:13.270Z,2.83
2023-04-02T01:12:00.218Z,2.93
2023-04-02T01:14:41.443Z,3.07
2023-04-02T01:17:28.589Z,2.70
2023-04-02T01:20:25.582Z,2.80
2023-04-02T01:23:06.234Z,2.60
2023-04-02T01:25:38.954Z,2.43
2023-04-02T01:28:19.902Z,2.20
2023-04-02T01:30:52.337Z,2.07
2023-04-02T01:33:22.207Z,2.30
2023-04-02T01:35:55.837Z,2.23
2023-04-02T01:38:46.746Z,2.13
2023-04-02T01:41:29.927Z,2.70
2023-04-02T01:44:03.714Z,2.80
2023-04-02T01:46:35.645Z,2.67
2023-04-02T01:49:10.663Z,2.77
2023-04-02T01:51:43.158Z,2.93
2023-04-02T01:54:11.406Z,3.17
2023-04-02T01:56:38.393Z,3.33
2023-04-02T01:59:06.173Z,3.10
2023-04-02T02:01:54.651Z,2.80
2023-04-02T02:04:22.000Z,2.40
2023-04-02T02:06:49.507Z,2.20
2023-04-02T02:09:22.148Z,2.40
2023-04-02T02:11:49.689Z,2.20
2023-04-02T02:14:19.329Z,2.30
2023-04-02T02:16:46.969Z,2.10
2023-04-02T02:19:22.848Z,1.80
2023-04-02T02:21:54.411Z,2.03
2023-04-02T02:24:31.881Z,2.10
2023-04-02T02:27:23.021Z,1.90
2023-04-02T02:29:53.021Z,1.93
2023-04-02T02:32:21.304Z,1.90
2023-04-02T02:35:08.273Z,1.80
2023-04-02T02:37:41.438Z,2.10
2023-04-02T02:40:22.073Z,2.50
2023-04-02T02:42:51.762Z,2.70
2023-04-02T02:45:21.651Z,2.60
2023-04-02T02:47:49.093Z,2.70
2023-04-02T02:50:31.909Z,3.10
2023-04-02T02:53:00.609Z,2.40
2023-04-02T02:55:32.999Z,2.17
2023-04-02T02:58:04.800Z,2.17
2023-04-02T03:00:32.232Z,2.30
2023-04-02T03:02:59.300Z,2.30
2023-04-02T03:05:28.028Z,2.07
2023-04-02T03:07:56.570Z,2.00
2023-04-02T03:10:27.679Z,2.60
2023-04-02T03:13:26.365Z,2.30
2023-04-02T03:16:04.140Z,2.40
2023-04-02T03:18:59.455Z,2.20
2023-04-02T03:21:33.152Z,2.00
2023-04-02T03:24:01.704Z,2.10
2023-04-02T03:26:40.339Z,2.10
2023-04-02T03:29:15.698Z,2.47
2023-04-02T03:31:48.255Z,2.43
2023-04-02T03:34:25.748Z,2.40
2023-04-02T03:37:07.543Z,2.20
2023-04-02T03:39:47.100Z,2.10
2023-04-02T03:42:26.358Z,2.20
2023-04-02T03:44:57.533Z,2.20
2023-04-02T03:47:27.406Z,1.80
2023-04-02T03:50:17.218Z,2.10
2023-04-02T03:52:44.108Z,1.90
2023-04-02T03:55:23.495Z,1.80
2023-04-02T03:58:00.583Z,2.20
2023-04-02T04:00:33.755Z,2.10
2023-04-02T04:03:08.380Z,2.20
2023-04-02T04:05:38.082Z,1.97
2023-04-02T04:08:14.551Z,2.27
2023-04-02T04:10:42.837Z,2.10
2023-04-02T04:13:14.242Z,2.20
2023-04-02T04:15:47.818Z,2.37
2023-04-02T04:18:52.780Z,2.40
2023-04-02T04:21:37.303Z,2.30
2023-04-02T04:24:14.081Z,2.97
2023-04-02T04:27:17.350Z,3.10
2023-04-02T04:29:55.135Z,3.73
2023-04-02T04:32:32.456Z,3.60
2023-04-02T04:35:19.847Z,3.53
2023-04-02T04:37:50.012Z,4.13
2023-04-02T04:40:21.533Z,4.50
2023-04-02T04:42:49.009Z,4.40
2023-04-02T04:45:21.745Z,3.97
2023-04-02T04:47:54.146Z,4.60
2023-04-02T04:50:42.061Z,4.77
2023-04-02T04:53:16.317Z,5.10
2023-04-02T04:55:48.645Z,4.97
2023-04-02T04:58:28.255Z,4.40
2023-04-02T05:01:07.725Z,5.07
2023-04-02T05:04:25.274Z,5.00
2023-04-02T05:06:53.362Z,4.83
2023-04-02T05:09:24.947Z,4.77
2023-04-02T05:12:31.329Z,4.63
2023-04-02T05:15:02.412Z,4.27
2023-04-02T05:17:50.996Z,4.87
2023-04-02T05:20:23.500Z,4.40
2023-04-02T05:22:55.037Z,4.30
2023-04-02T05:25:33.003Z,4.53
2023-04-02T05:28:05.971Z,4.30
2023-04-02T05:30:46.834Z,4.23
2023-04-02T05:33:24.584Z,4.17
2023-04-02T05:35:56.194Z,4.40
2023-04-02T05:38:26.293Z,4.80
2023-04-02T05:41:04.745Z,4.37
2023-04-02T05:43:34.557Z,4.57
2023-04-02T05:46:05.882Z,4.63
2023-04-02T05:48:40.873Z,4.10
2023-04-02T05:51:10.168Z,4.40
2023-04-02T05:54:00.031Z,3.90
2023-04-02T05:56:43.471Z,4.43
2023-04-02T05:59:23.480Z,4.47
2023-04-02T06:02:11.598Z,4.40
2023-04-02T06:04:55.833Z,4.73
2023-04-02T06:07:40.565Z,4.50
2023-04-02T06:10:11.088Z,4.30
2023-04-02T06:13:05.741Z,4.30
2023-04-02T06:15:34.088Z,4.77
2023-04-02T06:18:06.939Z,4.50
2023-04-02T06:20:34.199Z,4.27
2023-04-02T06:23:05.135Z,4.03
2023-04-02T06:25:35.866Z,4.23
2023-04-02T06:28:05.847Z,3.90
2023-04-02T06:30:35.358Z,4.20
2023-04-02T06:33:02.143Z,4.60
2023-04-02T06:35:28.887Z,4.20
2023-04-02T06:37:57.910Z,4.03
2023-04-02T06:40:33.836Z,4.10
2023-04-02T06:43:08.406Z,4.37
2023-04-02T06:45:40.122Z,4.23
2023-04-02T06:48:20.190Z,4.10
2023-04-02T06:51:03.732Z,4.10
2023-04-02T06:53:53.595Z,3.97
2023-04-02T06:56:49.235Z,4.10
2023-04-02T06:59:16.802Z,3.90
2023-04-02T07:01:57.533Z,3.50
2023-04-02T07:04:24.549Z,3.70
2023-04-02T07:06:51.515Z,3.80
2023-04-02T07:09:19.107Z,3.80
2023-04-02T07:11:51.224Z,3.93
2023-04-02T07:14:17.936Z,3.77
2023-04-02T07:16:44.804Z,3.30
2023-04-02T07:19:21.984Z,3.60
2023-04-02T07:21:49.379Z,2.90
2023-04-02T07:24:16.202Z,3.00
2023-04-02T07:26:43.146Z,3.20
2023-04-02T07:29:14.975Z,3.10
2023-04-02T07:31:42.064Z,3.17
2023-04-02T07:34:09.627Z,2.80
2023-04-02T07:36:36.609Z,3.20
2023-04-02T07:39:04.155Z,3.20
2023-04-02T07:41:30.866Z,2.90
2023-04-02T07:43:57.627Z,3.10
2023-04-02T07:46:24.765Z,3.00
2023-04-02T07:48:51.535Z,3.10
2023-04-02T07:51:23.779Z,3.20
2023-04-02T07:53:55.958Z,3.37
2023-04-02T07:56:24.599Z,3.03
2023-04-02T07:58:51.704Z,2.97
2023-04-02T08:01:19.655Z,3.20
2023-04-02T08:03:47.212Z,3.43
2023-04-02T08:06:14.051Z,3.03
2023-04-02T08:08:40.922Z,3.00
2023-04-02T08:11:07.787Z,2.97
2023-04-02T08:13:34.724Z,3.03
2023-04-02T08:16:02.436Z,2.73
2023-04-02T08:18:30.624Z,2.60
2023-04-02T08:20:58.177Z,2.90
2023-04-02T08:23:25.627Z,2.80
2023-04-02T08:25:53.025Z,2.90
2023-04-02T08:28:21.419Z,2.83
2023-04-02T08:30:51.708Z,3.00
2023-04-02T08:33:19.159Z,3.00
2023-04-02T08:35:49.856Z,2.50
2023-04-02T08:38:21.800Z,2.90
2023-04-02T08:40:53.664Z,3.03
2023-04-02T08:43:39.179Z,3.10
2023-04-02T08:46:18.801Z,3.07
2023-04-02T08:48:55.628Z,2.67
2023-04-02T08:51:34.872Z,2.90
2023-04-02T08:54:28.025Z,3.20
2023-04-02T08:57:40.271Z,3.13
2023-04-02T09:00:24.562Z,2.60
2023-04-02T09:02:56.995Z,2.60
2023-04-02T09:05:29.159Z,2.60
2023-04-02T09:07:59.315Z,3.07
2023-04-02T09:10:36.154Z,3.10
2023-04-02T09:13:03.218Z,2.80
2023-04-02T09:15:34.528Z,3.07
2023-04-02T09:18:13.771Z,2.80
2023-04-02T09:20:41.026Z,2.60
2023-04-02T09:23:16.416Z,2.80
2023-04-02T09:26:03.031Z,2.80
2023-04-02T09:28:31.405Z,3.10
2023-04-02T09:31:19.978Z,2.77
2023-04-02T09:33:49.230Z,2.90
2023-04-02T09:36:20.875Z,3.17
2023-04-02T09:38:59.198Z,3.30
2023-04-02T09:41:29.388Z,2.83
2023-04-02T09:44:14.560Z,3.20
2023-04-02T09:46:54.100Z,3.23
2023-04-02T09:49:26.619Z,2.80
2023-04-02T09:52:12.913Z,2.70
2023-04-02T09:54:41.821Z,2.60
2023-04-02T09:57:38.928Z,2.90
2023-04-02T10:00:41.741Z,2.80
2023-04-02T10:03:29.546Z,2.90
2023-04-02T10:06:14.414Z,2.93
2023-04-02T10:08:45.721Z,2.90
2023-04-02T10:11:46.274Z,2.63
2023-04-02T10:14:21.965Z,2.57
2023-04-02T10:16:54.406Z,2.70
2023-04-02T10:19:42.229Z,2.50
2023-04-02T10:22:32.408Z,2.97
2023-04-02T10:24:59.476Z,2.50
2023-04-02T10:27:52.254Z,3.10
2023-04-02T10:30:27.440Z,2.90
2023-04-02T10:33:01.335Z,2.57
2023-04-02T10:35:48.450Z,2.90
2023-04-02T10:38:31.291Z,2.87
2023-04-02T10:41:01.725Z,3.47
2023-04-02T10:43:37.541Z,2.80
2023-04-02T10:46:33.194Z,3.03
2023-04-02T10:49:52.239Z,3.00
2023-04-02T10:52:22.252Z,3.17
2023-04-02T10:54:51.049Z,2.53
2023-04-02T10:57:42.270Z,2.50
2023-04-02T11:00:12.710Z,2.60
2023-04-02T11:02:58.712Z,2.50
2023-04-02T11:05:44.289Z,2.53
2023-04-02T11:08:26.177Z,2.73
2023-04-02T11:10:58.567Z,2.60
2023-04-02T11:13:41.787Z,2.50
2023-04-02T11:16:08.592Z,3.00
2023-04-02T11:18:38.946Z,2.60
2023-04-02T11:21:27.388Z,2.73
2023-04-02T11:24:01.045Z,2.60
2023-04-02T11:26:31.769Z,3.00
2023-04-02T11:29:29.050Z,2.73
2023-04-02T11:32:20.852Z,2.63
2023-04-02T11:34:53.806Z,2.97
2023-04-02T11:37:45.168Z,2.50
2023-04-02T11:40:12.014Z,2.87
2023-04-02T11:42:42.652Z,2.60
2023-04-02T11:45:21.808Z,3.07
2023-04-02T11:48:06.192Z,2.63
2023-04-02T11:50:34.643Z,2.70
2023-04-02T11:53:05.579Z,2.70
2023-04-02T11:55:33.957Z,2.47
2023-04-02T11:58:09.775Z,2.43
2023-04-02T12:01:00.933Z,2.47
2023-04-02T12:03:58.784Z,2.10
2023-04-02T12:06:47.192Z,2.27
2023-04-02T12:09:23.663Z,2.40
2023-04-02T12:11:52.251Z,2.60
2023-04-02T12:14:33.182Z,2.60
2023-04-02T12:17:00.039Z,2.70
2023-04-02T12:19:27.529Z,2.60
2023-04-02T12:21:54.635Z,2.70
2023-04-02T12:24:23.483Z,2.63
2023-04-02T12:27:28.020Z,2.10
2023-04-02T12:29:56.256Z,2.23
2023-04-02T12:32:30.919Z,2.20
2023-04-02T12:34:58.533Z,2.30
2023-04-02T12:37:29.505Z,2.23
2023-04-02T12:39:56.510Z,2.20
2023-04-02T12:42:41.513Z,2.00
2023-04-02T12:45:22.841Z,2.63
2023-04-02T12:47:49.636Z,2.37
2023-04-02T12:50:26.759Z,3.10
2023-04-02T12:52:55.259Z,2.27
2023-04-02T12:55:29.757Z,2.40
2023-04-02T12:57:58.013Z,2.43
2023-04-02T13:00:29.692Z,2.27
2023-04-02T13:03:23.336Z,2.70
2023-04-02T13:05:52.837Z,2.30
2023-04-02T13:08:26.517Z,2.40
2023-04-02T13:10:55.806Z,2.40
2023-04-02T13:13:30.327Z,1.80
2023-04-02T13:16:06.215Z,2.00
2023-04-02T13:18:34.844Z,2.10
2023-04-02T13:21:03.756Z,2.30
2023-04-02T13:23:30.566Z,2.90
2023-04-02T13:25:57.779Z,2.70
2023-04-02T13:28:24.717Z,2.50
2023-04-02T13:30:51.626Z,2.40
2023-04-02T13:33:18.634Z,2.20
2023-04-02T13:35:45.689Z,2.30
2023-04-02T13:38:12.705Z,2.27
2023-04-02T13:40:39.542Z,2.20
2023-04-02T13:43:07.706Z,2.27
2023-04-02T13:45:37.089Z,2.23
2023-04-02T13:48:04.602Z,2.30
2023-04-02T13:50:33.277Z,2.57
2023-04-02T13:53:07.200Z,2.43
2023-04-02T13:55:38.113Z,2.37
2023-04-02T13:58:05.559Z,2.20
2023-04-02T14:00:32.665Z,2.13
2023-04-02T14:03:03.989Z,2.10
2023-04-02T14:05:30.757Z,2.47
2023-04-02T14:07:57.457Z,2.10
2023-04-02T14:11:09.566Z,2.13
2023-04-02T14:13:55.108Z,2.37
2023-04-02T14:16:59.283Z,2.10
2023-04-02T14:19:41.646Z,2.20
2023-04-02T14:22:11.427Z,2.43
2023-04-02T14:24:56.364Z,2.33
2023-04-02T14:27:36.331Z,2.20
2023-04-02T14:30:26.677Z,2.50
2023-04-02T14:32:59.495Z,2.13
2023-04-02T14:35:34.641Z,2.00
2023-04-02T14:38:14.274Z,2.10
2023-04-02T14:41:00.242Z,2.50
2023-04-02T14:43:40.153Z,2.23
2023-04-02T14:46:08.838Z,2.10
2023-04-02T14:48:43.928Z,2.10
2023-04-02T14:51:16.387Z,2.00
2023-04-02T14:53:51.711Z,2.10
2023-04-02T14:56:20.242Z,2.07
2023-04-02T14:58:53.694Z,2.30
2023-04-02T15:01:28.294Z,2.10
2023-04-02T15:04:04.678Z,1.87
2023-04-02T15:06:36.284Z,2.00
2023-04-02T15:09:09.372Z,2.00
2023-04-02T15:11:38.700Z,2.20
2023-04-02T15:14:25.872Z,2.40
2023-04-02T15:16:52.583Z,2.27
2023-04-02T15:19:19.811Z,2.20
2023-04-02T15:22:14.651Z,2.20
2023-04-02T15:25:09.130Z,2.13
2023-04-02T15:28:01.393Z,2.13
2023-04-02T15:30:33.297Z,1.73
2023-04-02T15:33:38.022Z,2.10
2023-04-02T15:36:34.183Z,2.20
2023-04-02T15:39:28.319Z,2.10
2023-04-02T15:42:04.287Z,2.10
2023-04-02T15:44:31.106Z,2.10
2023-04-02T15:47:06.784Z,2.37
2023-04-02T15:49:55.305Z,2.43
2023-04-02T15:52:24.894Z,2.10
2023-04-02T15:55:19.324Z,1.90
2023-04-02T15:57:54.774Z,2.00
2023-04-02T16:00:26.937Z,2.10
2023-04-02T16:03:27.978Z,2.10
2023-04-02T16:06:03.761Z,1.73
2023-04-02T16:08:39.454Z,1.90
2023-04-02T16:11:11.392Z,1.90
2023-04-02T16:13:39.779Z,2.13
2023-04-02T16:16:06.601Z,2.30
2023-04-02T16:18:38.640Z,2.07
2023-04-02T16:21:06.738Z,2.10
2023-04-02T16:23:38.507Z,2.20
2023-04-02T16:26:26.870Z,2.00
2023-04-02T16:29:14.876Z,2.27
2023-04-02T16:31:57.565Z,1.90
2023-04-02T16:35:23.916Z,2.10
2023-04-02T16:38:00.967Z,2.17
2023-04-02T16:41:06.983Z,2.03
2023-04-02T16:44:02.817Z,1.90
2023-04-02T16:47:12.191Z,1.97
2023-04-02T16:49:41.762Z,2.07
2023-04-02T16:52:13.891Z,2.20
2023-04-02T16:54:47.380Z,2.30
2023-04-02T16:57:20.753Z,2.00
2023-04-02T16:59:50.533Z,1.87
2023-04-02T17:02:55.221Z,2.00
2023-04-02T17:05:32.609Z,2.10
2023-04-02T17:08:16.061Z,2.10
2023-04-02T17:10:51.863Z,2.10
2023-04-02T17:13:21.717Z,2.10
2023-04-02T17:16:28.986Z,2.57
2023-04-02T17:18:58.173Z,2.20
2023-04-02T17:21:27.485Z,2.30
2023-04-02T17:24:02.231Z,2.47
2023-04-02T17:26:31.635Z,2.60
2023-04-02T17:29:01.671Z,1.93
2023-04-02T17:31:34.295Z,2.40
2023-04-02T17:34:11.160Z,1.90
2023-04-02T17:36:43.322Z,3.57
2023-04-02T17:39:21.615Z,2.50
2023-04-02T17:42:13.224Z,2.27
2023-04-02T17:45:01.618Z,1.90
2023-04-02T17:47:35.231Z,2.00
2023-04-02T17:50:29.939Z,2.40
2023-04-02T17:52:58.438Z,2.73
2023-04-02T17:55:50.110Z,2.53
2023-04-02T17:58:52.304Z,2.60
2023-04-02T18:01:29.219Z,2.40
2023-04-02T18:04:05.115Z,2.60
2023-04-02T18:06:50.682Z,2.37
2023-04-02T18:09:35.882Z,2.23
2023-04-02T18:12:17.824Z,2.13
2023-04-02T18:15:17.005Z,2.87
2023-04-02T18:17:59.276Z,2.70
2023-04-02T18:20:32.375Z,2.70
2023-04-02T18:23:12.550Z,3.03
2023-04-02T18:26:01.757Z,2.70
2023-04-02T18:28:34.469Z,2.73
2023-04-02T18:31:08.405Z,3.03
2023-04-02T18:33:56.189Z,3.17
2023-04-02T18:36:44.718Z,3.43
2023-04-02T18:39:32.948Z,3.10
2023-04-02T18:42:12.073Z,3.97
2023-04-02T18:44:45.646Z,3.43
2023-04-02T18:47:25.676Z,2.90
2023-04-02T18:50:04.667Z,2.37
2023-04-02T18:52:31.483Z,2.70
2023-04-02T18:55:06.397Z,2.50
2023-04-02T18:57:34.287Z,2.30
2023-04-02T19:00:06.460Z,2.30
2023-04-02T19:02:53.748Z,2.40
2023-04-02T19:05:33.148Z,2.70
2023-04-02T19:08:19.224Z,3.10
2023-04-02T19:10:48.882Z,2.80
2023-04-02T19:13:23.285Z,2.60
2023-04-02T19:15:56.076Z,2.80
2023-04-02T19:18:22.752Z,2.40
2023-04-02T19:21:02.814Z,2.80
2023-04-02T19:23:42.209Z,2.47
2023-04-02T19:26:13.032Z,3.03
2023-04-02T19:28:58.131Z,2.80
2023-04-02T19:31:35.804Z,2.77
2023-04-02T19:34:12.370Z,2.70
2023-04-02T19:36:59.094Z,2.80
2023-04-02T19:39:47.033Z,2.90
2023-04-02T19:42:40.158Z,2.83
2023-04-02T19:45:18.306Z,3.00
2023-04-02T19:47:45.087Z,3.00
2023-04-02T19:50:11.802Z,3.00
2023-04-02T19:52:38.530Z,2.80
2023-04-02T19:55:05.591Z,3.00
2023-04-02T19:57:32.969Z,3.23
2023-04-02T19:59:59.804Z,3.23
2023-04-02T20:02:26.610Z,3.50
2023-04-02T20:04:53.487Z,3.27
2023-04-02T20:07:20.312Z,3.27
2023-04-02T20:09:47.070Z,3.17
2023-04-02T20:12:14.020Z,3.07
2023-04-02T20:14:40.761Z,3.10
2023-04-02T20:17:07.641Z,3.30
2023-04-02T20:19:34.503Z,3.60
2023-04-02T20:22:01.241Z,3.07
2023-04-02T20:24:27.956Z,3.50
2023-04-02T20:26:54.645Z,3.63
2023-04-02T20:29:23.100Z,3.10
2023-04-02T20:31:49.776Z,3.63
2023-04-02T20:34:16.806Z,3.50
2023-04-02T20:36:44.633Z,3.17
2023-04-02T20:39:12.232Z,3.23
2023-04-02T20:41:38.927Z,3.10
2023-04-02T20:44:05.724Z,3.40
2023-04-02T20:46:32.713Z,3.40
2023-04-02T20:48:59.503Z,2.97
2023-04-02T20:51:26.285Z,3.13
2023-04-02T20:53:53.970Z,3.00
2023-04-02T20:56:22.521Z,3.13
2023-04-02T20:58:49.833Z,3.40
2023-04-02T21:01:21.100Z,3.63
2023-04-02T21:03:55.680Z,3.93
2023-04-02T21:06:24.623Z,3.20
2023-04-02T21:08:52.107Z,3.23
2023-04-02T21:11:19.954Z,3.30
2023-04-02T21:13:46.754Z,3.67
2023-04-02T21:16:15.233Z,3.40
2023-04-02T21:18:42.447Z,3.80
2023-04-02T21:21:13.490Z,4.03
2023-04-02T21:23:41.504Z,3.97
2023-04-02T21:26:10.485Z,3.90
2023-04-02T21:28:37.180Z,4.60
2023-04-02T21:31:37.362Z,4.57
2023-04-02T21:34:05.230Z,4.40
2023-04-02T21:36:35.410Z,3.70
2023-04-02T21:39:20.102Z,4.13
2023-04-02T21:41:50.162Z,4.20
2023-04-02T21:44:20.843Z,4.43
2023-04-02T21:46:49.350Z,4.60
2023-04-02T21:49:19.893Z,4.23
2023-04-02T21:51:47.393Z,4.23
2023-04-02T21:54:14.540Z,4.30
2023-04-02T21:56:43.506Z,4.40
2023-04-02T21:59:11.548Z,4.20
2023-04-02T22:01:43.746Z,4.40
2023-04-02T22:04:16.674Z,4.30
2023-04-02T22:06:43.962Z,4.47
2023-04-02T22:09:14.219Z,4.63
2023-04-02T22:11:44.239Z,4.67
2023-04-02T22:14:11.625Z,4.27
2023-04-02T22:16:38.834Z,4.83
2023-04-02T22:19:08.602Z,4.50
2023-04-02T22:21:36.356Z,4.50
2023-04-02T22:24:04.615Z,4.70
2023-04-02T22:26:32.804Z,4.43
2023-04-02T22:29:00.521Z,4.90
2023-04-02T22:31:30.479Z,4.57
2023-04-02T22:33:58.284Z,5.27
2023-04-02T22:36:26.703Z,5.17
2023-04-02T22:38:53.694Z,4.60
2023-04-02T22:41:22.789Z,5.40
2023-04-02T22:43:49.728Z,4.87
2023-04-02T22:46:17.800Z,4.90
2023-04-02T22:48:45.539Z,4.90
2023-04-02T22:51:14.461Z,4.53
2023-04-02T22:53:41.886Z,4.93
2023-04-02T22:56:20.306Z,4.93
2023-04-02T22:58:47.108Z,4.60
2023-04-02T23:01:17.317Z,5.17
2023-04-02T23:03:44.470Z,5.00
2023-04-02T23:06:12.922Z,5.43
2023-04-02T23:08:39.904Z,5.30
2023-04-02T23:11:15.143Z,4.67
2023-04-02T23:13:43.751Z,4.67
2023-04-02T23:16:13.149Z,4.97
2023-04-02T23:18:40.721Z,4.67
2023-04-02T23:21:07.717Z,4.60
2023-04-02T23:23:35.245Z,5.20
2023-04-02T23:26:08.024Z,4.47
2023-04-02T23:28:36.131Z,4.77
2023-04-02T23:31:04.629Z,4.57
2023-04-02T23:33:31.368Z,4.10
2023-04-02T23:35:58.789Z,4.40
2023-04-02T23:38:25.982Z,4.90
2023-04-02T23:40:53.768Z,4.00
2023-04-02T23:43:20.662Z,4.30
2023-04-02T23:45:50.730Z,4.20
2023-04-02T23:48:17.744Z,4.17
2023-04-02T23:50:45.588Z,4.27
2023-04-02T23:53:12.736Z,3.97
2023-04-02T23:55:39.543Z,4.10
2023-04-02T23:58:06.399Z,4.00
